createdAt,value
2022-10-18T00:02:02.322Z,16.85
2022-10-18T00:04:49.820Z,18.35
2022-10-18T00:07:37.304Z,17.55
2022-10-18T00:10:24.818Z,15.43
2022-10-18T00:13:12.397Z,17.42
2022-10-18T00:16:02.077Z,17.38
2022-10-18T00:18:49.556Z,17.90
2022-10-18T00:21:37.093Z,16.85
2022-10-18T00:24:24.187Z,17.52
2022-10-18T00:27:12.219Z,18.83
2022-10-18T00:29:59.824Z,17.27
2022-10-18T00:32:47.330Z,19.30
2022-10-18T00:35:35.504Z,19.08
2022-10-18T00:38:22.964Z,18.05
2022-10-18T00:41:13.086Z,22.40
2022-10-18T00:44:10.625Z,17.00
2022-10-18T00:47:06.693Z,17.80
2022-10-18T00:49:56.691Z,19.45
2022-10-18T00:52:51.522Z,17.38
2022-10-18T00:55:39.305Z,16.38
2022-10-18T00:58:26.788Z,16.95
2022-10-18T01:01:14.309Z,15.60
2022-10-18T01:04:01.493Z,17.40
2022-10-18T01:07:12.965Z,16.40
2022-10-18T01:10:22.988Z,16.38
2022-10-18T01:13:26.094Z,17.48
2022-10-18T01:16:42.215Z,17.65
2022-10-18T01:19:29.738Z,15.60
2022-10-18T01:22:27.685Z,17.63
2022-10-18T01:25:44.643Z,16.95
2022-10-18T01:28:57.797Z,16.42
2022-10-18T01:31:59.891Z,15.95
2022-10-18T01:34:50.046Z,16.88
2022-10-18T01:37:39.097Z,17.17
2022-10-18T01:40:26.898Z,18.92
2022-10-18T01:43:16.490Z,18.60
2022-10-18T01:46:05.176Z,19.48
2022-10-18T01:48:53.644Z,17.77
2022-10-18T01:51:41.247Z,22.38
2022-10-18T01:54:34.418Z,19.25
2022-10-18T01:57:43.146Z,19.42
2022-10-18T02:00:42.672Z,19.48
2022-10-18T02:03:30.408Z,17.38
2022-10-18T02:06:26.939Z,21.13
2022-10-18T02:09:20.094Z,18.30
2022-10-18T02:12:11.897Z,19.75
2022-10-18T02:15:00.549Z,19.27
2022-10-18T02:17:48.052Z,23.02
2022-10-18T02:20:38.272Z,23.73
2022-10-18T02:23:26.357Z,21.20
2022-10-18T02:26:14.981Z,19.73
2022-10-18T02:29:02.511Z,22.77
2022-10-18T02:31:53.956Z,25.55
2022-10-18T02:34:46.616Z,26.52
2022-10-18T02:37:37.621Z,21.20
2022-10-18T02:40:26.353Z,24.58
2022-10-18T02:43:14.559Z,21.83
2022-10-18T02:46:02.432Z,24.45
2022-10-18T02:48:50.269Z,25.15
2022-10-18T02:51:37.475Z,22.70
2022-10-18T02:54:25.023Z,25.42
2022-10-18T02:57:12.588Z,20.05
2022-10-18T02:59:59.786Z,23.50
2022-10-18T03:02:49.029Z,21.02
2022-10-18T03:05:36.511Z,26.73
2022-10-18T03:08:23.956Z,22.00
2022-10-18T03:11:11.438Z,26.75
2022-10-18T03:13:58.624Z,22.25
2022-10-18T03:16:45.646Z,21.17
2022-10-18T03:19:33.152Z,21.92
2022-10-18T03:22:20.744Z,21.55
2022-10-18T03:25:08.457Z,25.10
2022-10-18T03:27:55.924Z,25.45
2022-10-18T03:30:43.387Z,22.40
2022-10-18T03:33:32.085Z,19.42
2022-10-18T03:36:19.710Z,24.05
2022-10-18T03:39:07.208Z,23.52
2022-10-18T03:41:54.264Z,21.63
2022-10-18T03:44:41.317Z,24.10
2022-10-18T03:47:28.840Z,23.77
2022-10-18T03:50:16.320Z,23.60
2022-10-18T03:53:04.046Z,22.30
2022-10-18T03:55:52.680Z,21.25
2022-10-18T03:58:40.223Z,27.13
2022-10-18T04:01:27.811Z,26.23
2022-10-18T04:04:15.435Z,26.60
2022-10-18T04:07:02.924Z,23.75
2022-10-18T04:09:50.421Z,23.98
2022-10-18T04:12:37.951Z,28.25
2022-10-18T04:15:25.419Z,27.15
2022-10-18T04:18:12.947Z,26.60
2022-10-18T04:21:00.509Z,26.05
2022-10-18T04:23:51.008Z,23.58
2022-10-18T04:26:38.528Z,25.13
2022-10-18T04:29:26.007Z,27.05
2022-10-18T04:32:13.462Z,28.75
2022-10-18T04:35:01.227Z,25.27
2022-10-18T04:37:48.731Z,28.05
2022-10-18T04:40:35.886Z,29.42
2022-10-18T04:43:23.362Z,32.28
2022-10-18T04:46:10.434Z,28.90
2022-10-18T04:48:58.449Z,29.60
2022-10-18T04:51:45.992Z,32.75
2022-10-18T04:54:33.489Z,29.70
2022-10-18T04:57:21.070Z,28.35
2022-10-18T05:00:08.513Z,28.92
2022-10-18T05:02:58.358Z,32.33
2022-10-18T05:06:03.100Z,32.85
2022-10-18T05:08:51.013Z,36.90
2022-10-18T05:11:38.787Z,33.95
2022-10-18T05:14:26.318Z,33.83
2022-10-18T05:17:13.573Z,46.80
2022-10-18T05:20:01.197Z,34.88
2022-10-18T05:22:48.802Z,53.58
2022-10-18T05:25:39.140Z,42.92
2022-10-18T05:28:42.191Z,47.97
2022-10-18T05:31:29.890Z,39.83
2022-10-18T05:34:17.727Z,41.88
2022-10-18T05:37:05.618Z,42.92
2022-10-18T05:39:53.281Z,37.97
2022-10-18T05:42:40.789Z,35.70
2022-10-18T05:45:28.306Z,37.50
2022-10-18T05:48:15.836Z,36.15
2022-10-18T05:51:03.327Z,34.30
2022-10-18T05:53:50.942Z,38.67
2022-10-18T05:59:26.900Z,37.40
2022-10-18T06:02:14.433Z,35.92
2022-10-18T06:05:02.033Z,40.55
2022-10-18T06:07:49.585Z,37.38
2022-10-18T06:10:39.763Z,40.03
2022-10-18T06:13:29.082Z,37.40
2022-10-18T06:16:27.251Z,35.83
2022-10-18T06:19:17.392Z,33.30
2022-10-18T06:22:04.887Z,33.70
2022-10-18T06:24:57.133Z,35.30
2022-10-18T06:27:44.869Z,38.10
2022-10-18T06:30:34.162Z,39.88
2022-10-18T06:33:21.759Z,35.40
2022-10-18T06:36:15.989Z,35.97
2022-10-18T06:39:03.460Z,33.92
2022-10-18T06:41:50.970Z,37.85
2022-10-18T06:44:41.376Z,36.28
2022-10-18T06:47:28.841Z,33.67
2022-10-18T06:50:16.490Z,36.00
2022-10-18T06:53:06.131Z,35.90
2022-10-18T06:55:58.547Z,37.97
2022-10-18T06:58:46.077Z,35.65
2022-10-18T07:01:33.772Z,36.10
2022-10-18T07:04:21.292Z,39.50
2022-10-18T07:07:08.812Z,34.30
2022-10-18T07:09:56.303Z,39.30
2022-10-18T07:12:43.785Z,34.75
2022-10-18T07:15:31.301Z,36.22
2022-10-18T07:18:19.097Z,31.85
2022-10-18T07:21:12.361Z,29.42
2022-10-18T07:24:00.016Z,32.53
2022-10-18T07:26:47.444Z,34.05
2022-10-18T07:29:38.100Z,32.20
2022-10-18T07:32:25.613Z,29.92
2022-10-18T07:35:13.214Z,29.40
2022-10-18T07:38:00.774Z,18.65
2022-10-18T07:40:48.224Z,17.27
2022-10-18T07:43:36.034Z,15.93
2022-10-18T07:46:23.613Z,13.85
2022-10-18T07:49:11.084Z,10.98
2022-10-18T07:51:58.576Z,14.30
2022-10-18T07:54:46.127Z,10.27
2022-10-18T07:57:33.926Z,9.93
2022-10-18T08:00:21.666Z,11.32
2022-10-18T08:03:09.162Z,9.13
2022-10-18T08:05:56.694Z,9.50
2022-10-18T08:08:44.173Z,10.00
2022-10-18T08:11:31.746Z,11.55
2022-10-18T08:14:19.238Z,10.02
2022-10-18T08:17:06.702Z,10.40
2022-10-18T08:20:11.520Z,6.90
2022-10-18T08:23:01.650Z,7.93
2022-10-18T08:25:49.197Z,9.73
2022-10-18T08:28:36.966Z,9.40
2022-10-18T08:31:24.613Z,9.00
2022-10-18T08:34:14.853Z,11.30
2022-10-18T08:37:06.150Z,8.77
2022-10-18T08:39:53.609Z,9.65
2022-10-18T08:42:41.147Z,12.25
2022-10-18T08:45:41.271Z,8.40
2022-10-18T08:48:48.484Z,11.27
2022-10-18T08:51:48.454Z,14.23
2022-10-18T08:55:17.493Z,8.68
2022-10-18T08:58:26.734Z,11.02
2022-10-18T09:01:21.006Z,10.32
2022-10-18T09:04:08.599Z,7.85
2022-10-18T09:07:32.032Z,8.05
2022-10-18T09:10:52.563Z,10.25
2022-10-18T09:13:58.557Z,10.75
2022-10-18T09:16:45.969Z,10.82
2022-10-18T09:20:04.755Z,11.10
2022-10-18T09:23:05.630Z,13.20
2022-10-18T09:25:53.506Z,9.75
2022-10-18T09:28:58.627Z,10.68
2022-10-18T09:32:04.537Z,10.20
2022-10-18T09:34:53.778Z,9.75
2022-10-18T09:37:42.529Z,9.00
2022-10-18T09:40:35.295Z,8.32
2022-10-18T09:43:27.653Z,9.32
2022-10-18T09:46:16.854Z,11.18
2022-10-18T09:49:22.343Z,12.48
2022-10-18T09:52:16.421Z,8.50
2022-10-18T09:55:13.308Z,10.00
2022-10-18T09:58:03.213Z,7.55
2022-10-18T10:00:52.677Z,9.23
2022-10-18T10:03:41.767Z,9.15
2022-10-18T10:06:31.561Z,11.02
2022-10-18T10:09:27.026Z,8.65
2022-10-18T10:12:32.714Z,8.13
2022-10-18T10:15:23.444Z,7.25
2022-10-18T10:18:22.915Z,10.40
2022-10-18T10:21:16.073Z,9.68
2022-10-18T10:24:04.298Z,10.00
2022-10-18T10:26:59.812Z,9.15
2022-10-18T10:29:47.342Z,10.45
2022-10-18T10:32:56.113Z,17.50
2022-10-18T10:35:58.889Z,14.35
2022-10-18T10:38:46.457Z,12.25
2022-10-18T10:41:34.667Z,12.18
2022-10-18T10:44:30.412Z,13.45
2022-10-18T10:47:32.902Z,13.20
2022-10-18T10:50:28.292Z,11.20
2022-10-18T10:54:04.871Z,15.45
2022-10-18T10:57:12.625Z,13.18
2022-10-18T10:59:59.949Z,17.05
2022-10-18T11:02:59.242Z,18.98
2022-10-18T11:05:57.660Z,14.95
2022-10-18T11:11:40.835Z,20.25
2022-10-18T11:14:34.810Z,19.83
2022-10-18T11:17:31.445Z,19.88
2022-10-18T11:20:41.383Z,17.42
2022-10-18T11:23:32.565Z,21.15
2022-10-18T11:26:53.456Z,19.83
2022-10-18T11:30:05.886Z,25.65
2022-10-18T11:32:58.721Z,17.77
2022-10-18T11:36:06.910Z,21.67
2022-10-18T11:39:02.339Z,18.10
2022-10-18T11:42:14.975Z,17.65
2022-10-18T11:45:11.096Z,17.63
2022-10-18T11:48:26.095Z,16.20
2022-10-18T11:51:50.215Z,19.42
2022-10-18T11:55:09.431Z,16.83
2022-10-18T11:58:11.441Z,15.20
2022-10-18T12:01:27.725Z,16.98
2022-10-18T12:04:20.184Z,18.58
2022-10-18T12:07:13.329Z,15.55
2022-10-18T12:10:05.271Z,18.27
2022-10-18T12:12:56.966Z,15.60
2022-10-18T12:15:45.220Z,18.17
2022-10-18T12:18:33.050Z,17.90
2022-10-18T12:21:26.018Z,18.00
2022-10-18T12:24:20.350Z,20.95
2022-10-18T12:27:14.318Z,21.10
2022-10-18T12:30:17.876Z,18.83
2022-10-18T12:33:27.657Z,17.02
2022-10-18T12:36:21.823Z,16.65
2022-10-18T12:39:32.264Z,21.20
2022-10-18T12:42:33.131Z,15.82
2022-10-18T12:45:34.960Z,21.50
2022-10-18T12:48:42.527Z,16.70
2022-10-18T12:51:29.995Z,19.08
2022-10-18T12:54:17.773Z,17.02
2022-10-18T12:57:23.066Z,16.27
2022-10-18T13:00:30.048Z,19.10
2022-10-18T13:03:17.956Z,17.17
2022-10-18T13:06:06.810Z,14.30
2022-10-18T13:09:17.828Z,16.33
2022-10-18T13:12:10.486Z,13.95
2022-10-18T13:15:12.694Z,13.13
2022-10-18T13:18:17.128Z,13.07
2022-10-18T13:21:29.682Z,11.40
2022-10-18T13:24:39.805Z,13.57
2022-10-18T13:27:55.553Z,15.98
2022-10-18T13:31:19.424Z,11.50
2022-10-18T13:34:35.214Z,11.18
2022-10-18T13:37:24.715Z,13.88
2022-10-18T13:40:25.302Z,8.52
2022-10-18T13:43:52.394Z,13.32
2022-10-18T13:46:39.719Z,7.55
2022-10-18T13:49:39.099Z,6.30
2022-10-18T13:53:06.697Z,5.90
2022-10-18T13:56:37.784Z,4.40
2022-10-18T13:59:32.539Z,5.75
2022-10-18T14:03:00.062Z,5.22
2022-10-18T14:06:09.206Z,9.40
2022-10-18T14:09:40.394Z,7.18
2022-10-18T14:12:32.066Z,6.13
2022-10-18T14:15:25.676Z,7.60
2022-10-18T14:18:24.012Z,4.68
2022-10-18T14:21:21.885Z,8.85
2022-10-18T14:24:18.980Z,5.72
2022-10-18T14:27:25.030Z,4.68
2022-10-18T14:30:20.346Z,4.68
2022-10-18T14:33:28.424Z,5.72
2022-10-18T14:36:26.770Z,4.18
2022-10-18T14:39:23.844Z,4.75
2022-10-18T14:42:23.770Z,3.50
2022-10-18T14:45:21.719Z,5.80
2022-10-18T14:48:25.126Z,8.48
2022-10-18T14:51:14.701Z,3.45
2022-10-18T14:54:02.082Z,6.30
2022-10-18T14:56:49.704Z,6.32
2022-10-18T14:59:51.783Z,4.47
2022-10-18T15:02:39.481Z,6.38
2022-10-18T15:05:27.328Z,6.13
2022-10-18T15:08:14.889Z,4.45
2022-10-18T15:11:02.557Z,8.20
2022-10-18T15:14:03.395Z,8.05
2022-10-18T15:16:54.993Z,4.53
2022-10-18T15:20:00.608Z,6.28
2022-10-18T15:22:51.240Z,5.13
2022-10-18T15:25:38.739Z,6.82
2022-10-18T15:28:31.062Z,5.57
2022-10-18T15:31:34.892Z,4.25
2022-10-18T15:34:23.861Z,4.05
2022-10-18T15:37:32.093Z,5.13
2022-10-18T15:40:22.416Z,7.13
2022-10-18T15:43:27.606Z,4.32
2022-10-18T15:46:31.539Z,5.78
2022-10-18T15:49:24.609Z,5.47
2022-10-18T15:52:37.764Z,6.07
2022-10-18T15:55:32.904Z,5.03
2022-10-18T15:58:24.155Z,5.82
2022-10-18T16:01:21.198Z,5.93
2022-10-18T16:04:28.007Z,4.60
2022-10-18T16:07:15.617Z,4.88
2022-10-18T16:10:12.107Z,7.03
2022-10-18T16:12:59.607Z,9.38
2022-10-18T16:15:47.209Z,8.25
2022-10-18T16:18:34.688Z,5.53
2022-10-18T16:21:22.171Z,5.22
2022-10-18T16:24:09.751Z,8.32
2022-10-18T16:26:57.224Z,5.18
2022-10-18T16:29:44.736Z,7.55
2022-10-18T16:32:32.003Z,7.55
2022-10-18T16:35:19.675Z,9.85
2022-10-18T16:38:07.269Z,3.88
2022-10-18T16:40:54.817Z,5.85
2022-10-18T16:43:43.763Z,4.72
2022-10-18T16:46:33.593Z,6.35
2022-10-18T16:49:23.957Z,4.13
2022-10-18T16:52:11.940Z,5.68
2022-10-18T16:54:59.426Z,5.15
2022-10-18T16:57:46.950Z,5.80
2022-10-18T17:00:34.576Z,4.47
2022-10-18T17:03:21.939Z,6.97
2022-10-18T17:06:29.479Z,9.70
2022-10-18T17:09:17.165Z,10.73
2022-10-18T17:12:04.779Z,5.43
2022-10-18T17:14:52.269Z,9.20
2022-10-18T17:17:40.216Z,6.47
2022-10-18T17:20:27.856Z,12.50
2022-10-18T17:23:15.136Z,6.28
2022-10-18T17:26:21.941Z,4.90
2022-10-18T17:29:10.248Z,9.88
2022-10-18T17:31:57.861Z,10.93
2022-10-18T17:34:45.002Z,9.77
2022-10-18T17:37:32.798Z,10.82
2022-10-18T17:40:23.610Z,11.27
2022-10-18T17:43:13.333Z,9.98
2022-10-18T17:46:00.800Z,9.57
2022-10-18T17:48:48.387Z,12.40
2022-10-18T17:51:35.861Z,13.20
2022-10-18T17:54:23.350Z,14.57
2022-10-18T17:57:10.840Z,10.35
2022-10-18T17:59:59.603Z,8.07
2022-10-18T18:02:47.092Z,9.55
2022-10-18T18:05:34.601Z,10.52
2022-10-18T18:08:22.125Z,9.05
2022-10-18T18:11:09.259Z,8.68
2022-10-18T18:13:56.715Z,9.65
2022-10-18T18:16:46.480Z,9.52
2022-10-18T18:19:34.056Z,11.07
2022-10-18T18:22:21.618Z,7.38
2022-10-18T18:25:09.633Z,11.63
2022-10-18T18:27:57.117Z,9.93
2022-10-18T18:30:44.654Z,9.80
2022-10-18T18:33:33.407Z,11.10
2022-10-18T18:36:21.282Z,9.73
2022-10-18T18:39:09.180Z,9.32
2022-10-18T18:41:56.850Z,8.48
2022-10-18T18:44:45.972Z,8.98
2022-10-18T18:47:35.468Z,11.23
2022-10-18T18:50:22.966Z,8.30
2022-10-18T18:53:10.606Z,9.88
2022-10-18T18:56:02.641Z,8.75
2022-10-18T18:58:49.959Z,8.50
2022-10-18T19:01:38.057Z,11.15
2022-10-18T19:04:25.979Z,6.85
2022-10-18T19:07:13.043Z,10.55
2022-10-18T19:10:00.576Z,10.95
2022-10-18T19:12:48.010Z,7.70
2022-10-18T19:15:35.144Z,9.45
2022-10-18T19:18:23.919Z,11.45
2022-10-18T19:21:11.559Z,13.48
2022-10-18T19:23:59.540Z,8.35
2022-10-18T19:26:48.948Z,11.73
2022-10-18T19:29:38.491Z,12.93
2022-10-18T19:32:26.042Z,10.50
2022-10-18T19:35:13.543Z,13.70
2022-10-18T19:38:01.029Z,10.57
2022-10-18T19:40:51.600Z,10.48
2022-10-18T19:43:41.189Z,8.82
2022-10-18T19:46:28.737Z,9.38
2022-10-18T19:49:16.830Z,9.27
2022-10-18T19:52:04.411Z,8.63
2022-10-18T19:54:51.985Z,15.23
2022-10-18T19:57:39.456Z,10.05
2022-10-18T20:00:27.033Z,9.93
2022-10-18T20:03:16.070Z,11.40
2022-10-18T20:06:03.939Z,11.70
2022-10-18T20:08:51.815Z,11.77
2022-10-18T20:11:38.995Z,13.93
2022-10-18T20:14:26.601Z,9.07
2022-10-18T20:17:14.355Z,10.00
2022-10-18T20:20:01.938Z,11.57
2022-10-18T20:22:49.719Z,9.45
2022-10-18T20:25:37.380Z,13.13
2022-10-18T20:28:25.357Z,9.65
2022-10-18T20:31:18.754Z,6.75
2022-10-18T20:34:08.806Z,11.10
2022-10-18T20:36:56.339Z,11.18
2022-10-18T20:39:43.815Z,13.38
2022-10-18T20:42:31.302Z,10.50
2022-10-18T20:45:18.864Z,11.80
2022-10-18T20:48:06.448Z,11.15
2022-10-18T20:50:54.067Z,8.88
2022-10-18T20:53:41.169Z,10.65
2022-10-18T20:56:28.723Z,9.55
2022-10-18T20:59:17.059Z,10.43
2022-10-18T21:02:05.009Z,7.25
2022-10-18T21:04:52.747Z,10.75
2022-10-18T21:07:40.220Z,11.52
2022-10-18T21:10:27.713Z,9.63
2022-10-18T21:13:15.238Z,7.93
2022-10-18T21:16:03.359Z,9.70
2022-10-18T21:18:50.960Z,9.85
2022-10-18T21:21:38.845Z,9.75
2022-10-18T21:24:26.515Z,12.07
2022-10-18T21:27:14.065Z,10.43
2022-10-18T21:30:01.245Z,11.13
2022-10-18T21:32:52.376Z,13.15
2022-10-18T21:35:40.289Z,7.63
2022-10-18T21:38:27.758Z,12.02
2022-10-18T21:41:16.501Z,7.90
2022-10-18T21:44:06.946Z,9.82
2022-10-18T21:46:57.421Z,8.82
2022-10-18T21:49:44.953Z,8.70
2022-10-18T21:52:32.222Z,6.80
2022-10-18T21:55:19.994Z,10.20
2022-10-18T21:58:07.863Z,14.10
2022-10-18T22:00:55.493Z,5.50
2022-10-18T22:03:43.189Z,8.75
2022-10-18T22:06:32.749Z,10.10
2022-10-18T22:09:21.412Z,9.82
2022-10-18T22:12:10.834Z,9.23
2022-10-18T22:14:58.793Z,8.23
2022-10-18T22:17:46.325Z,8.90
2022-10-18T22:20:33.807Z,8.60
2022-10-18T22:23:21.313Z,10.35
2022-10-18T22:26:14.091Z,9.30
2022-10-18T22:29:07.321Z,10.45
2022-10-18T22:31:55.136Z,10.82
2022-10-18T22:34:42.702Z,8.05
2022-10-18T22:37:30.375Z,7.32
2022-10-18T22:40:18.071Z,6.53
2022-10-18T22:43:05.550Z,9.43
2022-10-18T22:45:53.058Z,9.50
2022-10-18T22:48:40.608Z,9.80
2022-10-18T22:51:28.335Z,6.95
2022-10-18T22:54:15.945Z,13.65
2022-10-18T22:57:03.436Z,9.50
2022-10-18T22:59:50.990Z,8.82
2022-10-18T23:02:38.446Z,11.25
2022-10-18T23:05:25.966Z,9.35
2022-10-18T23:08:14.115Z,8.70
2022-10-18T23:11:01.644Z,11.35
2022-10-18T23:13:49.419Z,7.97
2022-10-18T23:16:37.023Z,8.63
2022-10-18T23:19:24.585Z,8.80
2022-10-18T23:22:14.780Z,8.52
2022-10-18T23:25:02.247Z,9.85
2022-10-18T23:27:50.318Z,8.73
2022-10-18T23:30:38.377Z,11.80
2022-10-18T23:33:25.864Z,8.32
2022-10-18T23:36:13.433Z,9.00
2022-10-18T23:39:00.990Z,9.85
2022-10-18T23:41:48.535Z,11.15
2022-10-18T23:44:36.041Z,9.80
2022-10-18T23:47:23.573Z,7.03
2022-10-18T23:50:11.161Z,8.23
2022-10-18T23:52:58.262Z,12.23
2022-10-18T23:56:08.395Z,8.65
2022-10-18T23:58:56.403Z,7.78
